createdAt,value
2023-01-18T00:00:04.889Z,34.43
2023-01-18T00:00:35.034Z,34.49
2023-01-18T00:01:04.948Z,34.43
2023-01-18T00:01:35.037Z,34.46
2023-01-18T00:02:05.068Z,34.43
2023-01-18T00:02:35.067Z,34.44
2023-01-18T00:03:05.071Z,34.51
2023-01-18T00:03:35.087Z,34.51
2023-01-18T00:04:05.102Z,34.51
2023-01-18T00:04:35.141Z,34.46
2023-01-18T00:05:05.258Z,34.44
2023-01-18T00:05:35.249Z,34.47
2023-01-18T00:06:05.240Z,34.44
2023-01-18T00:06:35.246Z,34.46
2023-01-18T00:07:05.268Z,34.46
2023-01-18T00:07:35.269Z,34.44
2023-01-18T00:08:05.267Z,34.41
2023-01-18T00:08:35.290Z,34.41
2023-01-18T00:09:05.290Z,34.37
2023-01-18T00:09:35.298Z,34.40
2023-01-18T00:10:05.297Z,34.33
2023-01-18T00:10:35.306Z,34.38
2023-01-18T00:11:05.466Z,34.37
2023-01-18T00:11:35.358Z,34.40
2023-01-18T00:12:05.364Z,34.39
2023-01-18T00:12:35.365Z,34.38
2023-01-18T00:13:05.366Z,34.40
2023-01-18T00:13:35.386Z,34.35
2023-01-18T00:14:05.389Z,34.42
2023-01-18T00:14:35.411Z,34.36
2023-01-18T00:15:05.390Z,34.38
2023-01-18T00:15:35.393Z,34.36
2023-01-18T00:16:05.511Z,34.40
2023-01-18T00:16:35.447Z,34.39
2023-01-18T00:17:05.482Z,34.33
2023-01-18T00:17:35.467Z,34.35
2023-01-18T00:18:05.477Z,34.33
2023-01-18T00:18:35.478Z,34.32
2023-01-18T00:19:05.486Z,34.29
2023-01-18T00:19:35.488Z,34.35
2023-01-18T00:20:05.503Z,34.39
2023-01-18T00:20:35.515Z,34.43
2023-01-18T00:21:05.527Z,34.29
2023-01-18T00:21:35.535Z,34.34
2023-01-18T00:22:05.537Z,34.33
2023-01-18T00:22:35.548Z,34.33
2023-01-18T00:23:05.569Z,34.28
2023-01-18T00:23:35.571Z,34.30
2023-01-18T00:24:05.575Z,34.33
2023-01-18T00:24:35.572Z,34.27
2023-01-18T00:25:05.590Z,34.36
2023-01-18T00:25:35.598Z,34.33
2023-01-18T00:26:05.626Z,34.32
2023-01-18T00:26:35.610Z,34.33
2023-01-18T00:27:05.615Z,34.30
2023-01-18T00:27:35.620Z,34.30
2023-01-18T00:28:05.622Z,34.26
2023-01-18T00:28:35.650Z,34.34
2023-01-18T00:29:05.645Z,34.34
2023-01-18T00:29:35.658Z,34.34
2023-01-18T00:30:05.664Z,34.29
2023-01-18T00:30:35.687Z,34.37
2023-01-18T00:31:05.681Z,34.26
2023-01-18T00:31:35.745Z,34.30
2023-01-18T00:32:05.730Z,34.30
2023-01-18T00:32:35.768Z,34.29
2023-01-18T00:33:05.764Z,34.25
2023-01-18T00:33:35.772Z,34.32
2023-01-18T00:34:05.759Z,34.29
2023-01-18T00:34:35.773Z,34.30
2023-01-18T00:35:05.789Z,34.36
2023-01-18T00:35:35.806Z,34.29
2023-01-18T00:36:05.821Z,34.28
2023-01-18T00:36:35.818Z,34.27
2023-01-18T00:37:05.815Z,34.27
2023-01-18T00:37:35.815Z,34.37
2023-01-18T00:38:05.824Z,34.30
2023-01-18T00:38:35.835Z,34.34
2023-01-18T00:39:05.856Z,34.32
2023-01-18T00:39:35.861Z,34.30
2023-01-18T00:40:05.980Z,34.37
2023-01-18T00:40:35.987Z,34.33
2023-01-18T00:41:05.995Z,34.34
2023-01-18T00:41:36.005Z,34.27
2023-01-18T00:42:05.995Z,34.27
2023-01-18T00:42:36.007Z,34.34
2023-01-18T00:43:06.007Z,34.27
2023-01-18T00:43:36.012Z,34.30
2023-01-18T00:44:06.018Z,34.32
2023-01-18T00:44:36.025Z,34.33
2023-01-18T00:45:06.030Z,34.34
2023-01-18T00:45:36.146Z,34.32
2023-01-18T00:46:06.200Z,34.31
2023-01-18T00:46:36.109Z,34.26
2023-01-18T00:47:06.121Z,34.35
2023-01-18T00:47:36.219Z,34.39
2023-01-18T00:48:06.332Z,34.34
2023-01-18T00:48:36.406Z,34.38
2023-01-18T00:49:06.470Z,34.34
2023-01-18T00:49:36.550Z,34.29
2023-01-18T00:50:06.640Z,34.32
2023-01-18T00:50:36.714Z,34.32
2023-01-18T00:51:06.799Z,34.29
2023-01-18T00:51:36.871Z,34.27
2023-01-18T00:52:06.981Z,34.20
2023-01-18T00:52:37.040Z,34.31
2023-01-18T00:53:07.128Z,34.29
2023-01-18T00:53:37.192Z,34.30
2023-01-18T00:54:07.290Z,34.26
2023-01-18T00:54:37.354Z,34.29
2023-01-18T00:55:07.451Z,34.29
2023-01-18T00:55:37.525Z,34.30
2023-01-18T00:56:07.623Z,34.25
2023-01-18T00:56:37.726Z,34.25
2023-01-18T00:57:07.693Z,34.28
2023-01-18T00:57:37.779Z,34.23
2023-01-18T00:58:07.791Z,34.26
2023-01-18T00:59:16.947Z,34.31
2023-01-18T00:59:47.008Z,34.33
2023-01-18T01:00:17.058Z,34.36
2023-01-18T01:00:47.224Z,34.31
2023-01-18T01:01:17.337Z,34.33
2023-01-18T01:01:47.448Z,34.30
2023-01-18T01:02:17.392Z,34.29
2023-01-18T01:02:47.463Z,34.29
2023-01-18T01:03:17.489Z,34.32
2023-01-18T01:03:47.492Z,34.29
2023-01-18T01:04:17.525Z,34.30
2023-01-18T01:04:47.554Z,34.24
2023-01-18T01:05:17.608Z,34.23
2023-01-18T01:05:47.644Z,34.24
2023-01-18T01:06:17.671Z,34.20
2023-01-18T01:06:47.698Z,34.21
2023-01-18T01:07:17.756Z,34.28
2023-01-18T01:07:47.786Z,34.28
2023-01-18T01:08:17.846Z,34.27
2023-01-18T01:08:47.854Z,34.28
2023-01-18T01:09:17.945Z,34.22
2023-01-18T01:09:48.016Z,34.20
2023-01-18T01:10:18.097Z,34.28
2023-01-18T01:10:48.181Z,34.20
2023-01-18T01:11:18.273Z,34.23
2023-01-18T01:11:48.357Z,34.24
2023-01-18T01:12:18.428Z,34.26
2023-01-18T01:12:48.525Z,34.24
2023-01-18T01:13:18.601Z,34.21
2023-01-18T01:13:48.685Z,34.20
2023-01-18T01:14:18.763Z,34.16
2023-01-18T01:14:48.832Z,34.19
2023-01-18T01:15:18.931Z,34.16
2023-01-18T01:15:49.007Z,34.15
2023-01-18T01:16:19.166Z,34.17
2023-01-18T01:16:49.155Z,34.20
2023-01-18T01:17:19.123Z,34.18
2023-01-18T01:17:49.196Z,34.19
2023-01-18T01:18:19.302Z,34.21
2023-01-18T01:18:49.363Z,34.18
2023-01-18T01:19:19.439Z,34.14
2023-01-18T01:19:49.520Z,34.13
2023-01-18T01:20:19.593Z,34.17
2023-01-18T01:20:49.694Z,34.16
2023-01-18T01:21:19.775Z,34.16
2023-01-18T01:21:49.849Z,34.12
2023-01-18T01:22:19.922Z,34.14
2023-01-18T01:22:50.005Z,34.14
2023-01-18T01:23:20.089Z,34.16
2023-01-18T01:23:50.168Z,34.12
2023-01-18T01:24:20.246Z,34.12
2023-01-18T01:24:50.317Z,34.10
2023-01-18T01:25:20.406Z,34.07
2023-01-18T01:25:50.520Z,34.14
2023-01-18T01:26:20.510Z,34.09
2023-01-18T01:26:50.602Z,34.09
2023-01-18T01:27:20.667Z,34.08
2023-01-18T01:27:50.751Z,34.10
2023-01-18T01:28:20.841Z,34.09
2023-01-18T01:28:50.916Z,34.01
2023-01-18T01:29:21.001Z,34.03
2023-01-18T01:29:51.089Z,34.05
2023-01-18T01:30:21.159Z,34.05
2023-01-18T01:30:51.301Z,34.10
2023-01-18T01:31:21.291Z,34.05
2023-01-18T01:31:51.420Z,34.09
2023-01-18T01:32:21.395Z,34.14
2023-01-18T01:32:51.478Z,34.07
2023-01-18T01:33:21.581Z,34.12
2023-01-18T01:33:51.656Z,34.13
2023-01-18T01:34:21.731Z,34.10
2023-01-18T01:34:51.818Z,34.11
2023-01-18T01:35:21.884Z,34.07
2023-01-18T01:35:51.979Z,34.06
2023-01-18T01:36:22.070Z,34.09
2023-01-18T01:36:52.139Z,34.05
2023-01-18T01:37:22.217Z,34.02
2023-01-18T01:37:52.301Z,34.00
2023-01-18T01:38:22.373Z,34.02
2023-01-18T01:38:52.462Z,34.01
2023-01-18T01:39:22.547Z,34.02
2023-01-18T01:39:52.622Z,34.03
2023-01-18T01:40:22.698Z,34.05
2023-01-18T01:40:52.793Z,34.06
2023-01-18T01:41:22.863Z,34.03
2023-01-18T01:41:52.944Z,34.00
2023-01-18T01:42:23.013Z,34.08
2023-01-18T01:42:53.099Z,34.05
2023-01-18T01:43:23.176Z,34.10
2023-01-18T01:43:53.280Z,34.09
2023-01-18T01:44:23.346Z,34.03
2023-01-18T01:44:53.413Z,33.96
2023-01-18T01:45:23.503Z,34.06
2023-01-18T01:45:53.626Z,34.03
2023-01-18T01:46:23.590Z,34.01
2023-01-18T01:46:53.669Z,34.03
2023-01-18T01:47:23.757Z,34.00
2023-01-18T01:47:53.838Z,34.05
2023-01-18T01:48:23.936Z,34.05
2023-01-18T01:48:53.987Z,34.00
2023-01-18T01:49:24.057Z,34.04
2023-01-18T01:49:54.140Z,34.02
2023-01-18T01:50:24.205Z,34.03
2023-01-18T01:50:54.300Z,34.03
2023-01-18T01:51:24.395Z,34.03
2023-01-18T01:51:54.466Z,34.02
2023-01-18T01:52:24.543Z,33.96
2023-01-18T01:52:54.780Z,33.96
2023-01-18T01:53:24.704Z,33.99
2023-01-18T01:53:54.778Z,33.99
2023-01-18T01:54:24.859Z,34.02
2023-01-18T01:54:54.923Z,34.02
2023-01-18T01:55:25.013Z,33.96
2023-01-18T01:55:55.097Z,34.04
2023-01-18T01:56:25.171Z,34.03
2023-01-18T01:56:55.268Z,34.00
2023-01-18T01:57:25.328Z,34.03
2023-01-18T01:57:55.415Z,34.01
2023-01-18T01:58:25.492Z,34.02
2023-01-18T01:58:55.578Z,34.01
2023-01-18T01:59:25.593Z,34.07
2023-01-18T01:59:55.619Z,34.00
2023-01-18T02:00:25.673Z,33.99
2023-01-18T02:00:55.877Z,33.99
2023-01-18T02:01:25.829Z,33.95
2023-01-18T02:01:55.924Z,33.98
2023-01-18T02:02:25.787Z,33.96
2023-01-18T02:02:56.082Z,33.96
2023-01-18T02:03:25.849Z,33.94
2023-01-18T02:03:55.864Z,33.95
2023-01-18T02:04:25.883Z,33.92
2023-01-18T02:04:55.936Z,33.92
2023-01-18T02:05:25.961Z,33.94
2023-01-18T02:05:55.983Z,33.98
2023-01-18T02:06:26.029Z,33.96
2023-01-18T02:06:56.081Z,33.92
2023-01-18T02:07:26.107Z,33.94
2023-01-18T02:07:56.136Z,33.89
2023-01-18T02:08:26.167Z,33.96
2023-01-18T02:08:56.219Z,33.89
2023-01-18T02:09:26.299Z,33.96
2023-01-18T02:09:56.380Z,33.96
2023-01-18T02:10:26.460Z,33.93
2023-01-18T02:10:56.529Z,34.03
2023-01-18T02:11:26.619Z,33.96
2023-01-18T02:11:56.699Z,33.97
2023-01-18T02:12:26.778Z,33.96
2023-01-18T02:12:57.331Z,33.98
2023-01-18T02:13:26.974Z,33.98
2023-01-18T02:13:57.055Z,34.03
2023-01-18T02:14:27.152Z,33.94
2023-01-18T02:14:57.224Z,33.93
2023-01-18T02:15:27.296Z,33.96
2023-01-18T02:15:57.382Z,34.00
2023-01-18T02:16:27.523Z,33.93
2023-01-18T02:16:57.607Z,33.95
2023-01-18T02:17:27.573Z,34.03
2023-01-18T02:17:57.653Z,33.96
2023-01-18T02:18:27.762Z,33.94
2023-01-18T02:18:57.825Z,33.98
2023-01-18T02:19:27.906Z,34.01
2023-01-18T02:19:57.993Z,33.96
2023-01-18T02:20:28.061Z,33.98
2023-01-18T02:20:58.143Z,33.97
2023-01-18T02:21:28.229Z,33.96
2023-01-18T02:21:58.311Z,33.98
2023-01-18T02:22:28.403Z,34.00
2023-01-18T02:22:58.917Z,33.96
2023-01-18T02:23:28.575Z,33.94
2023-01-18T02:23:58.664Z,33.94
2023-01-18T02:24:28.736Z,33.93
2023-01-18T02:24:59.096Z,34.00
2023-01-18T02:25:28.920Z,34.01
2023-01-18T02:25:59.028Z,33.97
2023-01-18T02:26:29.126Z,33.99
2023-01-18T02:26:59.212Z,34.02
2023-01-18T02:27:29.280Z,33.97
2023-01-18T02:27:59.356Z,34.03
2023-01-18T02:28:29.452Z,34.06
2023-01-18T02:28:59.514Z,34.02
2023-01-18T02:29:29.599Z,34.05
2023-01-18T02:29:59.670Z,34.01
2023-01-18T02:30:29.760Z,34.02
2023-01-18T02:30:59.900Z,34.01
2023-01-18T02:31:29.873Z,33.99
2023-01-18T02:31:59.953Z,33.95
2023-01-18T02:32:30.052Z,33.86
2023-01-18T02:33:00.536Z,33.94
2023-01-18T02:33:30.203Z,33.94
2023-01-18T02:34:00.280Z,33.87
2023-01-18T02:34:30.355Z,33.95
2023-01-18T02:35:00.439Z,33.92
2023-01-18T02:35:30.508Z,33.92
2023-01-18T02:36:00.626Z,34.02
2023-01-18T02:36:30.672Z,33.97
2023-01-18T02:37:00.756Z,33.93
2023-01-18T02:37:30.846Z,33.94
2023-01-18T02:38:00.918Z,33.95
2023-01-18T02:38:30.992Z,33.90
2023-01-18T02:39:01.073Z,33.97
2023-01-18T02:39:31.159Z,33.95
2023-01-18T02:40:01.243Z,33.93
2023-01-18T02:40:31.312Z,33.91
2023-01-18T02:41:01.393Z,33.90
2023-01-18T02:41:31.480Z,33.98
2023-01-18T02:42:01.560Z,33.91
2023-01-18T02:42:31.640Z,33.90
2023-01-18T02:43:01.723Z,33.95
2023-01-18T02:43:31.801Z,33.92
2023-01-18T02:44:01.882Z,33.91
2023-01-18T02:44:31.972Z,33.95
2023-01-18T02:45:02.044Z,33.99
2023-01-18T02:45:33.814Z,33.97
2023-01-18T02:46:02.224Z,33.91
2023-01-18T02:46:32.235Z,33.94
2023-01-18T02:47:02.299Z,33.93
2023-01-18T02:47:32.412Z,33.92
2023-01-18T02:48:02.473Z,33.92
2023-01-18T02:48:32.581Z,33.89
2023-01-18T02:49:02.627Z,33.89
2023-01-18T02:49:32.714Z,33.89
2023-01-18T02:50:02.792Z,33.90
2023-01-18T02:50:32.877Z,33.94
2023-01-18T02:51:02.957Z,33.95
2023-01-18T02:51:33.033Z,33.92
2023-01-18T02:52:03.131Z,33.95
2023-01-18T02:52:33.212Z,33.95
2023-01-18T02:53:03.289Z,33.92
2023-01-18T02:53:33.392Z,33.91
2023-01-18T02:54:03.452Z,33.92
2023-01-18T02:54:33.537Z,33.95
2023-01-18T02:55:03.602Z,33.91
2023-01-18T02:55:33.686Z,33.85
2023-01-18T02:56:03.770Z,33.91
2023-01-18T02:56:33.858Z,33.86
2023-01-18T02:57:03.939Z,33.94
2023-01-18T02:57:34.022Z,33.88
2023-01-18T02:58:04.100Z,33.92
2023-01-18T02:58:34.181Z,33.84
2023-01-18T02:59:04.238Z,33.88
2023-01-18T02:59:34.264Z,33.89
2023-01-18T03:00:04.307Z,33.92
2023-01-18T03:00:34.338Z,33.88
2023-01-18T03:01:04.458Z,33.87
2023-01-18T03:01:34.586Z,33.88
2023-01-18T03:02:04.553Z,33.88
2023-01-18T03:02:34.609Z,33.87
2023-01-18T03:03:04.620Z,33.85
2023-01-18T03:03:34.686Z,33.94
2023-01-18T03:04:04.705Z,33.85
2023-01-18T03:04:34.738Z,33.85
2023-01-18T03:05:04.770Z,33.87
2023-01-18T03:05:34.805Z,33.91
2023-01-18T03:06:04.851Z,33.84
2023-01-18T03:06:34.884Z,33.92
2023-01-18T03:07:04.913Z,33.81
2023-01-18T03:07:34.975Z,33.91
2023-01-18T03:08:04.999Z,33.82
2023-01-18T03:08:35.048Z,33.92
2023-01-18T03:09:05.108Z,33.88
2023-01-18T03:09:35.200Z,33.88
2023-01-18T03:10:05.291Z,33.82
2023-01-18T03:10:35.348Z,33.85
2023-01-18T03:11:05.445Z,33.82
2023-01-18T03:11:35.524Z,33.83
2023-01-18T03:12:05.599Z,33.80
2023-01-18T03:12:35.678Z,33.77
2023-01-18T03:13:05.745Z,33.79
2023-01-18T03:13:35.836Z,33.82
2023-01-18T03:14:05.906Z,33.82
2023-01-18T03:14:35.982Z,33.82
2023-01-18T03:15:06.067Z,33.81
2023-01-18T03:15:36.208Z,33.77
2023-01-18T03:16:06.191Z,33.78
2023-01-18T03:16:36.154Z,33.86
2023-01-18T03:17:06.286Z,33.93
2023-01-18T03:17:36.353Z,33.83
2023-01-18T03:18:06.434Z,33.83
2023-01-18T03:18:36.496Z,33.83
2023-01-18T03:19:06.609Z,33.84
2023-01-18T03:19:36.654Z,33.83
2023-01-18T03:20:06.764Z,33.74
2023-01-18T03:20:36.823Z,33.88
2023-01-18T03:21:06.901Z,33.77
2023-01-18T03:21:36.970Z,33.84
2023-01-18T03:22:07.066Z,33.78
2023-01-18T03:22:37.141Z,33.86
2023-01-18T03:23:07.228Z,33.81
2023-01-18T03:23:37.300Z,33.85
2023-01-18T03:24:07.385Z,33.82
2023-01-18T03:24:37.455Z,33.89
2023-01-18T03:25:07.545Z,33.85
2023-01-18T03:25:37.614Z,33.86
2023-01-18T03:26:07.704Z,33.83
2023-01-18T03:26:37.815Z,33.81
2023-01-18T03:27:07.804Z,33.86
2023-01-18T03:27:37.896Z,33.79
2023-01-18T03:28:07.968Z,33.79
2023-01-18T03:28:38.044Z,33.79
2023-01-18T03:29:08.126Z,33.82
2023-01-18T03:29:38.218Z,33.80
2023-01-18T03:30:08.292Z,33.87
2023-01-18T03:30:38.382Z,33.83
2023-01-18T03:31:08.530Z,33.83
2023-01-18T03:31:38.525Z,33.85
2023-01-18T03:32:08.607Z,33.86
2023-01-18T03:32:38.684Z,33.83
2023-01-18T03:33:08.765Z,33.83
2023-01-18T03:33:38.844Z,33.87
2023-01-18T03:34:08.938Z,33.83
2023-01-18T03:34:39.011Z,33.86
2023-01-18T03:35:09.096Z,33.86
2023-01-18T03:35:39.168Z,33.83
2023-01-18T03:36:09.258Z,33.86
2023-01-18T03:36:39.321Z,33.81
2023-01-18T03:37:09.421Z,33.83
2023-01-18T03:37:39.512Z,33.75
2023-01-18T03:38:09.607Z,33.79
2023-01-18T03:38:39.679Z,33.79
2023-01-18T03:39:09.746Z,33.76
2023-01-18T03:39:39.832Z,33.79
2023-01-18T03:40:09.907Z,33.79
2023-01-18T03:40:39.992Z,33.77
2023-01-18T03:41:10.068Z,33.77
2023-01-18T03:41:40.145Z,33.85
2023-01-18T03:42:10.230Z,33.85
2023-01-18T03:42:40.298Z,33.82
2023-01-18T03:43:10.388Z,33.81
2023-01-18T03:43:40.468Z,33.83
2023-01-18T03:44:10.571Z,33.79
2023-01-18T03:44:40.642Z,33.76
2023-01-18T03:45:10.737Z,33.78
2023-01-18T03:45:40.812Z,33.75
2023-01-18T03:46:10.996Z,33.74
2023-01-18T03:46:40.976Z,33.83
2023-01-18T03:47:11.053Z,33.82
2023-01-18T03:47:41.125Z,33.81
2023-01-18T03:48:11.191Z,33.75
2023-01-18T03:48:41.259Z,33.77
2023-01-18T03:49:11.352Z,33.78
2023-01-18T03:49:41.430Z,33.70
2023-01-18T03:50:11.498Z,33.79
2023-01-18T03:50:41.572Z,33.79
2023-01-18T03:51:11.638Z,33.75
2023-01-18T03:51:41.706Z,33.75
2023-01-18T03:52:11.773Z,33.75
2023-01-18T03:52:41.893Z,33.74
2023-01-18T03:53:11.964Z,33.74
2023-01-18T03:53:42.056Z,33.72
2023-01-18T03:54:12.135Z,33.74
2023-01-18T03:54:42.203Z,33.72
2023-01-18T03:55:12.287Z,33.71
2023-01-18T03:55:42.365Z,33.76
2023-01-18T03:56:12.441Z,33.66
2023-01-18T03:56:42.507Z,33.69
2023-01-18T03:57:12.573Z,33.65
2023-01-18T03:57:42.676Z,33.63
2023-01-18T03:58:12.770Z,33.65
2023-01-18T03:58:42.850Z,33.60
2023-01-18T03:59:12.883Z,33.65
2023-01-18T03:59:42.910Z,33.65
2023-01-18T04:00:12.934Z,33.71
2023-01-18T04:00:42.986Z,33.69
2023-01-18T04:01:13.213Z,33.76
2023-01-18T04:01:43.144Z,33.71
2023-01-18T04:02:13.199Z,33.76
2023-01-18T04:02:43.296Z,33.69
2023-01-18T04:03:13.380Z,33.82
2023-01-18T04:03:43.329Z,33.79
2023-01-18T04:04:13.394Z,33.79
2023-01-18T04:04:43.415Z,33.82
2023-01-18T04:05:13.455Z,33.79
2023-01-18T04:05:43.516Z,33.81
2023-01-18T04:06:13.556Z,33.73
2023-01-18T04:06:43.597Z,33.79
2023-01-18T04:07:13.656Z,33.78
2023-01-18T04:07:43.717Z,33.73
2023-01-18T04:08:13.746Z,33.70
2023-01-18T04:08:43.791Z,33.73
2023-01-18T04:09:13.860Z,33.75
2023-01-18T04:09:43.932Z,33.76
2023-01-18T04:10:14.012Z,33.75
2023-01-18T04:10:44.100Z,33.75
2023-01-18T04:11:14.174Z,33.70
2023-01-18T04:11:44.254Z,33.73
2023-01-18T04:12:14.338Z,33.75
2023-01-18T04:12:44.404Z,33.66
2023-01-18T04:13:14.482Z,33.76
2023-01-18T04:13:44.561Z,33.70
2023-01-18T04:14:14.647Z,33.69
2023-01-18T04:14:44.710Z,33.67
2023-01-18T04:15:14.783Z,33.67
2023-01-18T04:15:44.885Z,33.74
2023-01-18T04:16:15.022Z,33.68
2023-01-18T04:16:44.965Z,33.67
2023-01-18T04:17:15.045Z,33.70
2023-01-18T04:17:45.116Z,33.70
2023-01-18T04:18:15.190Z,33.68
2023-01-18T04:18:45.257Z,33.76
2023-01-18T04:19:15.353Z,33.73
2023-01-18T04:19:45.440Z,33.72
2023-01-18T04:20:15.517Z,33.74
2023-01-18T04:20:45.584Z,33.73
2023-01-18T04:21:15.663Z,33.66
2023-01-18T04:21:45.727Z,33.67
2023-01-18T04:22:15.802Z,33.64
2023-01-18T04:22:45.864Z,33.68
2023-01-18T04:23:15.943Z,33.76
2023-01-18T04:23:46.035Z,33.67
2023-01-18T04:24:16.104Z,33.64
2023-01-18T04:24:46.178Z,33.67
2023-01-18T04:25:16.240Z,33.68
2023-01-18T04:25:46.307Z,33.67
2023-01-18T04:26:16.403Z,33.72
2023-01-18T04:26:46.465Z,33.71
2023-01-18T04:27:16.548Z,33.70
2023-01-18T04:27:46.642Z,33.71
2023-01-18T04:28:16.705Z,33.74
2023-01-18T04:28:46.771Z,33.71
2023-01-18T04:29:16.852Z,33.78
2023-01-18T04:29:46.946Z,33.72
2023-01-18T04:30:17.010Z,33.72
2023-01-18T04:30:47.086Z,33.80
2023-01-18T04:31:17.216Z,33.78
2023-01-18T04:31:47.187Z,33.78
2023-01-18T04:32:17.258Z,33.73
2023-01-18T04:32:47.334Z,33.78
2023-01-18T04:33:17.406Z,33.87
2023-01-18T04:33:47.488Z,33.81
2023-01-18T04:34:17.593Z,33.85
2023-01-18T04:34:47.633Z,33.83
2023-01-18T04:35:17.709Z,33.87
2023-01-18T04:35:47.835Z,33.88
2023-01-18T04:36:17.897Z,33.88
2023-01-18T04:36:47.958Z,33.85
2023-01-18T04:37:18.047Z,33.89
2023-01-18T04:37:48.119Z,33.95
2023-01-18T04:38:18.209Z,33.93
2023-01-18T04:38:48.295Z,33.88
2023-01-18T04:39:18.362Z,33.97
2023-01-18T04:39:48.449Z,33.95
2023-01-18T04:40:18.531Z,33.98
2023-01-18T04:40:48.615Z,33.98
2023-01-18T04:41:18.705Z,34.05
2023-01-18T04:41:48.784Z,34.00
2023-01-18T04:42:18.851Z,34.03
2023-01-18T04:42:48.931Z,34.10
2023-01-18T04:43:19.033Z,34.03
2023-01-18T04:43:49.083Z,34.05
2023-01-18T04:44:19.162Z,33.99
2023-01-18T04:44:49.239Z,34.05
2023-01-18T04:45:19.311Z,34.02
2023-01-18T04:45:49.382Z,34.06
2023-01-18T04:46:19.525Z,34.03
2023-01-18T04:46:49.497Z,34.09
2023-01-18T04:47:19.578Z,34.10
2023-01-18T04:47:49.650Z,34.14
2023-01-18T04:48:19.718Z,34.14
2023-01-18T04:48:49.812Z,34.10
2023-01-18T04:49:19.919Z,34.10
2023-01-18T04:49:49.969Z,34.10
2023-01-18T04:50:20.085Z,34.12
2023-01-18T04:50:50.161Z,34.00
2023-01-18T04:51:20.167Z,34.04
2023-01-18T04:51:50.241Z,34.05
2023-01-18T04:52:20.319Z,34.02
2023-01-18T04:52:50.394Z,34.07
2023-01-18T04:53:20.491Z,34.02
2023-01-18T04:53:50.550Z,33.98
2023-01-18T04:54:20.618Z,33.99
2023-01-18T04:54:50.708Z,33.98
2023-01-18T04:55:20.780Z,34.04
2023-01-18T04:55:50.867Z,34.02
2023-01-18T04:56:20.952Z,33.97
2023-01-18T04:56:51.036Z,34.02
2023-01-18T04:57:21.144Z,34.06
2023-01-18T04:57:51.200Z,34.04
2023-01-18T04:58:21.296Z,34.01
2023-01-18T04:58:51.348Z,33.99
2023-01-18T04:59:21.388Z,33.99
2023-01-18T04:59:51.456Z,33.98
2023-01-18T05:00:21.488Z,34.00
2023-01-18T05:00:51.598Z,33.98
2023-01-18T05:01:21.764Z,33.97
2023-01-18T05:01:51.633Z,34.01
2023-01-18T05:02:21.728Z,34.00
2023-01-18T05:02:51.741Z,33.98
2023-01-18T05:03:21.778Z,33.94
2023-01-18T05:03:51.801Z,33.98
2023-01-18T05:04:21.830Z,33.98
2023-01-18T05:04:51.900Z,33.97
2023-01-18T05:05:21.908Z,33.96
2023-01-18T05:05:51.941Z,33.98
2023-01-18T05:06:21.980Z,33.93
2023-01-18T05:06:52.000Z,33.95
2023-01-18T05:07:22.039Z,33.98
2023-01-18T05:07:52.084Z,33.94
2023-01-18T05:09:01.242Z,34.00
2023-01-18T05:09:31.294Z,34.02
2023-01-18T05:10:01.323Z,34.03
2023-01-18T05:10:31.344Z,34.05
2023-01-18T05:11:40.555Z,33.98
2023-01-18T05:12:10.625Z,33.97
2023-01-18T05:12:40.693Z,33.98
2023-01-18T05:13:10.728Z,33.93
2023-01-18T05:13:40.793Z,33.93
2023-01-18T05:14:10.833Z,33.94
2023-01-18T05:14:40.854Z,33.84
2023-01-18T05:15:10.900Z,33.89
2023-01-18T05:15:40.934Z,33.82
2023-01-18T05:16:11.009Z,33.82
2023-01-18T05:16:41.117Z,33.79
2023-01-18T05:17:11.144Z,33.76
2023-01-18T05:17:41.172Z,33.71
2023-01-18T05:18:11.207Z,33.66
2023-01-18T05:18:41.236Z,33.72
2023-01-18T05:19:11.260Z,33.67
2023-01-18T05:19:41.284Z,33.62
2023-01-18T05:20:11.340Z,33.52
2023-01-18T05:20:41.350Z,33.51
2023-01-18T05:21:11.404Z,33.55
2023-01-18T05:21:41.467Z,33.69
2023-01-18T05:22:11.533Z,33.66
2023-01-18T05:22:41.611Z,33.58
2023-01-18T05:23:11.705Z,33.58
2023-01-18T05:23:41.799Z,33.65
2023-01-18T05:24:11.858Z,33.70
2023-01-18T05:24:41.933Z,33.60
2023-01-18T05:25:12.009Z,33.63
2023-01-18T05:25:42.088Z,33.68
2023-01-18T05:26:12.155Z,33.67
2023-01-18T05:26:42.246Z,33.67
2023-01-18T05:27:12.311Z,33.71
2023-01-18T05:27:42.390Z,33.70
2023-01-18T05:28:12.459Z,33.72
2023-01-18T05:28:42.556Z,33.74
2023-01-18T05:29:12.627Z,33.77
2023-01-18T05:29:42.711Z,33.69
2023-01-18T05:30:12.778Z,33.67
2023-01-18T05:30:42.893Z,33.67
2023-01-18T05:31:12.965Z,33.63
2023-01-18T05:31:43.110Z,33.63
2023-01-18T05:32:13.045Z,33.67
2023-01-18T05:32:43.131Z,33.69
2023-01-18T05:33:13.195Z,33.72
2023-01-18T05:33:43.318Z,33.69
2023-01-18T05:34:13.296Z,33.70
2023-01-18T05:34:43.364Z,33.59
2023-01-18T05:35:13.470Z,33.59
2023-01-18T05:35:43.528Z,33.60
2023-01-18T05:36:13.509Z,33.63
2023-01-18T05:36:43.585Z,33.62
2023-01-18T05:37:13.671Z,33.66
2023-01-18T05:37:43.753Z,33.67
2023-01-18T05:38:13.824Z,33.62
2023-01-18T05:38:43.908Z,33.64
2023-01-18T05:39:13.999Z,33.64
2023-01-18T05:39:44.070Z,33.67
2023-01-18T05:40:14.164Z,33.65
2023-01-18T05:40:44.235Z,33.65
2023-01-18T05:41:14.317Z,33.63
2023-01-18T05:41:44.399Z,33.64
2023-01-18T05:42:14.482Z,33.64
2023-01-18T05:42:44.557Z,33.60
2023-01-18T05:43:14.641Z,33.60
2023-01-18T05:43:44.751Z,33.55
2023-01-18T05:44:14.826Z,33.60
2023-01-18T05:44:44.908Z,33.55
2023-01-18T05:45:14.999Z,33.58
2023-01-18T05:45:45.106Z,33.51
2023-01-18T05:46:15.305Z,33.63
2023-01-18T05:46:45.274Z,33.58
2023-01-18T05:47:15.347Z,33.64
2023-01-18T05:47:45.434Z,33.60
2023-01-18T05:48:15.515Z,33.61
2023-01-18T05:48:45.604Z,33.63
2023-01-18T05:49:15.691Z,33.62
2023-01-18T05:49:45.814Z,33.68
2023-01-18T05:50:15.796Z,33.51
2023-01-18T05:50:45.849Z,33.57
2023-01-18T05:51:15.942Z,33.60
2023-01-18T05:51:46.028Z,33.60
2023-01-18T05:52:16.112Z,33.59
2023-01-18T05:52:46.189Z,33.62
2023-01-18T05:53:16.269Z,33.65
2023-01-18T05:53:46.346Z,33.65
2023-01-18T05:54:16.432Z,33.62
2023-01-18T05:54:46.472Z,33.60
2023-01-18T05:55:16.553Z,33.60
2023-01-18T05:55:46.623Z,33.62
2023-01-18T05:56:16.734Z,33.67
2023-01-18T05:56:46.848Z,33.62
2023-01-18T05:57:16.906Z,33.60
2023-01-18T05:57:47.747Z,33.66
2023-01-18T05:58:17.038Z,33.65
2023-01-18T05:58:47.145Z,33.63
2023-01-18T05:59:17.203Z,33.62
2023-01-18T05:59:47.292Z,33.66
2023-01-18T06:00:17.365Z,33.62
2023-01-18T06:00:47.503Z,33.69
2023-01-18T06:01:17.486Z,33.68
2023-01-18T06:01:47.658Z,33.68
2023-01-18T06:02:17.624Z,33.75
2023-01-18T06:02:47.711Z,33.71
2023-01-18T06:03:17.804Z,33.76
2023-01-18T06:03:47.865Z,33.76
2023-01-18T06:04:18.016Z,33.77
2023-01-18T06:04:47.969Z,33.79
2023-01-18T06:05:18.288Z,33.78
2023-01-18T06:05:48.129Z,33.80
2023-01-18T06:06:18.185Z,33.83
2023-01-18T06:06:48.289Z,33.85
2023-01-18T06:07:18.348Z,33.83
2023-01-18T06:07:48.446Z,33.90
2023-01-18T06:08:18.500Z,33.86
2023-01-18T06:08:48.586Z,33.87
2023-01-18T06:09:18.685Z,33.84
2023-01-18T06:09:48.670Z,33.86
2023-01-18T06:10:18.737Z,33.88
2023-01-18T06:10:48.805Z,33.87
2023-01-18T06:11:18.880Z,33.88
2023-01-18T06:11:48.918Z,33.87
2023-01-18T06:12:18.961Z,33.89
2023-01-18T06:12:49.005Z,33.88
2023-01-18T06:13:19.051Z,33.90
2023-01-18T06:13:49.067Z,33.94
2023-01-18T06:14:19.139Z,33.96
2023-01-18T06:14:49.148Z,33.95
2023-01-18T06:15:19.172Z,33.95
2023-01-18T06:15:49.784Z,33.91
2023-01-18T06:16:19.287Z,33.92
2023-01-18T06:16:49.324Z,33.94
2023-01-18T06:17:19.352Z,34.04
2023-01-18T06:17:49.394Z,34.00
2023-01-18T06:18:19.420Z,34.12
2023-01-18T06:18:49.478Z,34.16
2023-01-18T06:19:19.484Z,34.26
2023-01-18T06:19:49.520Z,34.24
2023-01-18T06:20:19.536Z,34.32
2023-01-18T06:20:49.588Z,34.23
2023-01-18T06:21:19.622Z,34.30
2023-01-18T06:21:49.703Z,34.20
2023-01-18T06:22:19.768Z,34.30
2023-01-18T06:22:49.849Z,34.39
2023-01-18T06:23:19.938Z,34.30
2023-01-18T06:23:50.008Z,34.27
2023-01-18T06:24:20.081Z,34.23
2023-01-18T06:24:50.173Z,34.23
2023-01-18T06:25:20.233Z,34.24
2023-01-18T06:25:50.317Z,34.43
2023-01-18T06:26:20.452Z,34.68
2023-01-18T06:26:50.497Z,34.85
2023-01-18T06:27:20.580Z,35.09
2023-01-18T06:27:50.658Z,35.09
2023-01-18T06:28:20.739Z,35.24
2023-01-18T06:28:50.799Z,35.31